createdAt,value
2017-09-29T03:31:31.224Z,68.60
2017-09-29T03:33:58.831Z,68.70
2017-09-29T03:36:26.444Z,68.80
2017-09-29T03:38:54.127Z,68.50
2017-09-29T03:41:21.725Z,68.00
2017-09-29T03:43:49.806Z,68.60
2017-09-29T03:46:17.420Z,68.90
2017-09-29T03:48:45.031Z,69.10
2017-09-29T03:51:24.036Z,69.60
2017-09-29T03:53:53.128Z,69.80
2017-09-29T03:56:25.944Z,70.80
2017-09-29T03:58:56.321Z,71.40
2017-09-29T04:01:24.754Z,71.80
2017-09-29T04:03:52.748Z,71.80
2017-09-29T04:06:20.366Z,71.70
2017-09-29T04:08:47.981Z,72.00
2017-09-29T04:11:16.045Z,72.40
2017-09-29T04:13:43.644Z,72.40
2017-09-29T04:16:11.594Z,72.30
2017-09-29T04:18:39.971Z,72.10
2017-09-29T04:21:08.330Z,72.10
2017-09-29T04:23:35.949Z,72.20
2017-09-29T04:26:03.554Z,72.40
2017-09-29T04:28:31.198Z,72.20
2017-09-29T04:30:58.799Z,72.30
2017-09-29T04:33:27.199Z,71.40
2017-09-29T04:35:54.825Z,71.40
2017-09-29T04:38:23.214Z,70.40
2017-09-29T04:40:51.600Z,69.50
2017-09-29T04:43:19.979Z,69.40
2017-09-29T04:45:48.373Z,68.50
2017-09-29T04:48:15.974Z,68.50
2017-09-29T04:50:43.657Z,68.00
2017-09-29T04:53:11.272Z,67.10
2017-09-29T04:55:38.890Z,67.40
2017-09-29T04:58:07.320Z,66.60
2017-09-29T05:00:34.936Z,66.60
2017-09-29T05:03:03.351Z,67.10
2017-09-29T05:05:30.962Z,67.00
2017-09-29T05:07:58.608Z,67.30
2017-09-29T05:10:26.239Z,67.40
2017-09-29T05:12:53.840Z,67.70
2017-09-29T05:15:21.741Z,68.00
2017-09-29T05:17:49.347Z,67.50
2017-09-29T05:20:16.973Z,67.00
2017-09-29T05:22:44.918Z,67.10
2017-09-29T05:25:13.282Z,67.50
2017-09-29T05:27:40.916Z,67.50
2017-09-29T05:30:08.555Z,68.40
2017-09-29T05:32:36.164Z,67.80
2017-09-29T05:35:04.112Z,67.40
2017-09-29T05:37:31.741Z,67.10
2017-09-29T05:39:59.346Z,67.80
2017-09-29T05:42:27.313Z,68.30
2017-09-29T05:44:54.948Z,68.10
2017-09-29T05:47:23.326Z,67.70
2017-09-29T05:49:51.322Z,67.70
2017-09-29T05:52:18.932Z,67.00
2017-09-29T05:54:46.543Z,66.30
2017-09-29T05:57:14.506Z,65.70
2017-09-29T05:59:42.110Z,64.90
2017-09-29T06:02:09.762Z,64.60
2017-09-29T06:04:38.549Z,64.40
2017-09-29T06:07:06.929Z,63.80
2017-09-29T06:09:35.389Z,64.10
2017-09-29T06:12:03.374Z,64.10
2017-09-29T06:14:31.865Z,64.10
2017-09-29T06:17:00.626Z,64.00
2017-09-29T06:19:28.248Z,64.00
2017-09-29T06:21:55.855Z,63.90
2017-09-29T06:24:23.856Z,63.70
2017-09-29T06:26:51.469Z,63.30
2017-09-29T06:29:19.273Z,63.10
2017-09-29T06:31:47.667Z,63.70
2017-09-29T06:34:15.308Z,63.70
2017-09-29T06:36:44.078Z,65.50
2017-09-29T06:39:12.447Z,64.80
2017-09-29T06:41:40.102Z,64.80
2017-09-29T06:44:07.734Z,65.40
2017-09-29T06:46:35.379Z,65.20
2017-09-29T06:49:03.403Z,65.30
2017-09-29T06:51:31.014Z,64.60
2017-09-29T06:53:58.699Z,64.10
2017-09-29T06:56:26.635Z,63.40
2017-09-29T06:58:54.297Z,63.20
2017-09-29T07:01:21.932Z,62.80
2017-09-29T07:03:50.319Z,61.90
2017-09-29T07:06:18.705Z,61.90
2017-09-29T07:08:47.424Z,61.70
2017-09-29T07:11:15.042Z,61.60
2017-09-29T07:13:43.414Z,61.80
2017-09-29T07:16:12.211Z,62.00
2017-09-29T07:18:40.584Z,61.40
2017-09-29T07:21:08.955Z,61.20
2017-09-29T07:23:37.363Z,62.20
2017-09-29T07:26:07.186Z,62.20
2017-09-29T07:28:40.331Z,61.80
2017-09-29T07:31:10.363Z,61.40
2017-09-29T07:33:38.828Z,61.30
2017-09-29T07:36:06.503Z,61.20
2017-09-29T07:38:34.880Z,60.40
2017-09-29T07:41:03.632Z,60.00
2017-09-29T07:43:31.243Z,59.90
2017-09-29T07:45:59.681Z,60.10
2017-09-29T07:48:27.644Z,60.10
2017-09-29T07:50:55.253Z,59.80
2017-09-29T07:53:23.633Z,60.00
2017-09-29T07:55:51.743Z,60.00
2017-09-29T07:58:19.338Z,60.00
2017-09-29T08:00:46.959Z,60.50
2017-09-29T08:03:14.917Z,60.90
2017-09-29T08:05:42.533Z,59.70
2017-09-29T08:08:10.172Z,59.40
2017-09-29T08:10:37.802Z,59.00
2017-09-29T08:13:05.463Z,59.20
2017-09-29T08:15:33.470Z,58.40
2017-09-29T08:18:01.069Z,58.70
2017-09-29T08:20:29.463Z,58.60
2017-09-29T08:22:57.415Z,58.60
2017-09-29T08:25:25.786Z,56.90
2017-09-29T08:27:54.172Z,57.00
2017-09-29T08:30:22.923Z,57.30
2017-09-29T08:32:50.535Z,57.30
2017-09-29T08:35:18.135Z,57.20
2017-09-29T08:37:46.411Z,57.30
2017-09-29T08:40:14.040Z,57.10
2017-09-29T08:42:41.639Z,57.50
2017-09-29T08:45:09.611Z,57.00
2017-09-29T08:47:37.258Z,57.10
2017-09-29T08:50:04.861Z,57.30
2017-09-29T08:52:33.248Z,56.30
2017-09-29T08:55:01.638Z,55.80
2017-09-29T08:57:29.295Z,55.70
2017-09-29T08:59:56.904Z,55.50
2017-09-29T09:02:24.653Z,55.20
2017-09-29T09:04:52.280Z,54.70
2017-09-29T09:07:19.896Z,55.60
2017-09-29T09:09:47.532Z,54.80
2017-09-29T09:12:15.153Z,55.10
2017-09-29T09:14:43.529Z,55.80
2017-09-29T09:17:11.938Z,55.90
2017-09-29T09:19:39.539Z,55.90
2017-09-29T09:22:07.181Z,55.80
2017-09-29T09:24:34.797Z,55.20
2017-09-29T09:27:02.414Z,54.80
2017-09-29T09:29:30.038Z,55.60
2017-09-29T09:31:57.661Z,56.40
2017-09-29T09:34:26.097Z,56.20
2017-09-29T09:36:54.001Z,56.20
2017-09-29T09:39:21.679Z,54.70
2017-09-29T09:41:50.064Z,55.30
2017-09-29T09:44:18.445Z,55.80
2017-09-29T09:46:47.207Z,56.20
2017-09-29T09:49:14.813Z,56.20
2017-09-29T09:51:42.445Z,56.60
2017-09-29T09:54:10.838Z,55.10
2017-09-29T09:56:39.324Z,55.10
2017-09-29T09:59:07.355Z,55.00
2017-09-29T10:01:35.030Z,54.70
2017-09-29T10:04:02.637Z,55.20
2017-09-29T10:06:30.304Z,55.90
2017-09-29T10:08:57.900Z,55.30
2017-09-29T10:11:25.535Z,54.10
2017-09-29T10:13:53.149Z,53.00
2017-09-29T10:16:21.927Z,51.90
2017-09-29T10:18:50.424Z,51.50
2017-09-29T10:21:18.797Z,52.70
2017-09-29T10:23:47.174Z,53.80
2017-09-29T10:26:15.550Z,54.10
2017-09-29T10:28:44.244Z,54.10
2017-09-29T10:31:12.620Z,54.20
2017-09-29T10:33:40.988Z,54.10
2017-09-29T10:36:09.379Z,55.40
2017-09-29T10:38:36.996Z,55.40
2017-09-29T10:41:04.938Z,54.90
2017-09-29T10:43:32.554Z,55.40
2017-09-29T10:46:00.925Z,55.50
2017-09-29T10:48:28.537Z,55.10
2017-09-29T10:50:56.219Z,54.70
2017-09-29T10:53:24.202Z,54.10
2017-09-29T10:55:51.900Z,54.30
2017-09-29T10:58:20.308Z,54.30
2017-09-29T11:00:47.951Z,54.30
2017-09-29T11:03:15.558Z,54.70
2017-09-29T11:05:43.502Z,54.40
2017-09-29T11:08:11.112Z,54.00
2017-09-29T11:10:38.824Z,53.30
2017-09-29T11:13:06.443Z,53.90
2017-09-29T11:15:34.824Z,53.10
2017-09-29T11:18:03.597Z,53.20
2017-09-29T11:20:31.191Z,53.10
2017-09-29T11:22:58.809Z,52.70
2017-09-29T11:25:26.476Z,52.20
2017-09-29T11:27:54.082Z,52.00
2017-09-29T11:30:22.089Z,51.90
2017-09-29T11:32:50.461Z,51.90
2017-09-29T11:35:18.068Z,51.90
2017-09-29T11:37:46.463Z,52.50
2017-09-29T11:40:14.110Z,52.40
2017-09-29T11:42:42.841Z,53.20
2017-09-29T11:45:10.502Z,53.20
2017-09-29T11:47:38.125Z,53.80
2017-09-29T11:50:06.518Z,55.70
2017-09-29T11:52:34.129Z,55.70
2017-09-29T11:55:02.104Z,56.10
2017-09-29T11:57:29.718Z,55.70
2017-09-29T11:59:57.362Z,54.80
2017-09-29T12:02:24.991Z,56.30
2017-09-29T12:04:52.620Z,57.60
2017-09-29T12:07:20.615Z,56.80
2017-09-29T12:09:48.230Z,56.70
2017-09-29T12:12:15.834Z,56.80
2017-09-29T12:14:43.462Z,57.50
2017-09-29T12:17:11.084Z,57.10
2017-09-29T12:19:39.816Z,58.40
2017-09-29T12:22:07.446Z,58.40
2017-09-29T12:24:35.082Z,57.30
2017-09-29T12:27:02.739Z,58.20
2017-09-29T12:29:30.414Z,58.00
2017-09-29T12:31:59.138Z,58.30
2017-09-29T12:34:27.147Z,58.30
2017-09-29T12:37:02.974Z,59.30
2017-09-29T12:39:30.840Z,59.80
2017-09-29T12:41:58.514Z,59.90
2017-09-29T12:44:26.211Z,59.60
2017-09-29T12:46:54.644Z,58.70
2017-09-29T12:49:26.158Z,58.70
2017-09-29T12:51:55.016Z,59.10
2017-09-29T12:54:23.812Z,59.50
2017-09-29T12:56:51.434Z,59.50
2017-09-29T12:59:19.050Z,59.80
2017-09-29T13:01:47.531Z,59.30
2017-09-29T13:04:15.900Z,59.80
2017-09-29T13:06:43.858Z,59.80
2017-09-29T13:09:11.473Z,59.90
2017-09-29T13:11:39.101Z,60.40
2017-09-29T13:14:07.577Z,61.00
2017-09-29T13:16:35.958Z,61.20
2017-09-29T13:19:04.713Z,61.90
2017-09-29T13:21:32.370Z,61.90
2017-09-29T13:24:00.026Z,62.10
2017-09-29T13:26:27.702Z,61.50
2017-09-29T13:28:55.330Z,61.50
2017-09-29T13:31:23.289Z,62.20
2017-09-29T13:33:50.898Z,62.30
2017-09-29T13:36:18.522Z,60.60
2017-09-29T13:38:46.166Z,60.50
2017-09-29T13:41:13.773Z,59.60
2017-09-29T13:43:41.749Z,59.80
2017-09-29T13:46:09.370Z,59.70
2017-09-29T13:48:36.989Z,59.80
2017-09-29T13:51:05.393Z,59.30
2017-09-29T13:53:33.052Z,59.20
2017-09-29T13:56:01.102Z,59.70
2017-09-29T13:58:29.499Z,61.30
2017-09-29T14:00:57.121Z,61.20
2017-09-29T14:03:25.071Z,61.20
2017-09-29T14:05:52.697Z,61.70
2017-09-29T14:08:20.645Z,62.00
2017-09-29T14:10:49.041Z,62.50
2017-09-29T14:13:16.669Z,62.40
2017-09-29T14:15:44.317Z,62.20
2017-09-29T14:18:12.009Z,62.20
2017-09-29T14:20:40.765Z,62.70
2017-09-29T14:23:09.181Z,62.80
2017-09-29T14:25:37.569Z,63.10
2017-09-29T14:28:05.203Z,63.10
2017-09-29T14:30:32.881Z,62.90
2017-09-29T14:33:00.923Z,63.30
2017-09-29T14:35:28.678Z,62.90
2017-09-29T14:37:57.076Z,62.70
2017-09-29T14:40:24.698Z,62.70
2017-09-29T14:42:52.402Z,63.10
2017-09-29T14:45:20.470Z,62.20
2017-09-29T14:47:48.077Z,62.40
2017-09-29T14:50:15.699Z,62.00
2017-09-29T14:52:44.102Z,62.70
2017-09-29T14:55:11.821Z,61.90
2017-09-29T14:57:39.801Z,61.30
2017-09-29T15:00:07.438Z,62.00
2017-09-29T15:02:35.093Z,62.20
2017-09-29T15:05:02.714Z,62.40
2017-09-29T15:07:31.091Z,62.50
2017-09-29T15:09:59.954Z,62.30
2017-09-29T15:12:27.577Z,62.30
2017-09-29T15:14:55.221Z,62.40
2017-09-29T15:17:22.846Z,62.60
2017-09-29T15:20:00.740Z,62.40
2017-09-29T15:22:28.912Z,62.80
2017-09-29T15:24:56.525Z,62.40
2017-09-29T15:27:24.134Z,62.90
2017-09-29T15:29:51.852Z,63.30
2017-09-29T15:32:19.511Z,63.70
2017-09-29T15:34:47.620Z,63.50
2017-09-29T15:37:15.226Z,63.90
2017-09-29T15:39:42.836Z,64.60
2017-09-29T15:42:10.468Z,64.60
2017-09-29T15:44:38.084Z,63.80
2017-09-29T15:47:06.038Z,63.60
2017-09-29T15:49:33.649Z,63.40
2017-09-29T15:52:01.290Z,63.30
2017-09-29T15:54:29.696Z,64.80
2017-09-29T15:56:57.294Z,64.80
2017-09-29T15:59:25.373Z,65.10
2017-09-29T16:01:53.052Z,65.60
2017-09-29T16:04:21.470Z,66.50
2017-09-29T16:06:49.168Z,66.50
2017-09-29T16:09:16.789Z,66.70
2017-09-29T16:11:44.761Z,67.40
2017-09-29T16:14:12.470Z,67.90
2017-09-29T16:16:40.144Z,67.60
2017-09-29T16:19:07.782Z,67.40
2017-09-29T16:21:35.405Z,66.20
2017-09-29T16:24:03.395Z,66.60
2017-09-29T16:26:31.018Z,67.10
2017-09-29T16:28:58.651Z,66.70
2017-09-29T16:31:26.289Z,67.00
2017-09-29T16:33:53.966Z,67.30
2017-09-29T16:36:21.607Z,67.70
2017-09-29T16:38:49.290Z,68.20
2017-09-29T16:41:16.921Z,67.50
2017-09-29T16:43:44.940Z,67.90
2017-09-29T16:46:13.348Z,69.50
2017-09-29T16:48:40.974Z,69.50
2017-09-29T16:51:08.619Z,70.20
2017-09-29T16:53:36.337Z,70.20
2017-09-29T16:56:04.372Z,69.80
2017-09-29T16:58:31.978Z,69.90
2017-09-29T17:00:59.641Z,71.10
2017-09-29T17:03:27.653Z,70.10
2017-09-29T17:05:55.278Z,70.20
2017-09-29T17:08:23.750Z,69.80
2017-09-29T17:10:51.724Z,69.50
2017-09-29T17:13:19.363Z,69.40
2017-09-29T17:15:47.072Z,69.50
2017-09-29T17:18:14.766Z,69.20
2017-09-29T17:20:43.453Z,68.90
2017-09-29T17:23:17.590Z,68.80
2017-09-29T17:25:45.262Z,68.80
2017-09-29T17:28:13.209Z,68.90
2017-09-29T17:30:42.185Z,68.70
2017-09-29T17:33:09.825Z,68.70
2017-09-29T17:35:38.394Z,68.80
2017-09-29T17:38:06.387Z,69.00
2017-09-29T17:40:34.022Z,68.90
2017-09-29T17:43:01.647Z,68.80
2017-09-29T17:45:29.291Z,68.60
2017-09-29T17:47:57.740Z,68.30
2017-09-29T17:50:25.832Z,68.20
2017-09-29T17:52:53.448Z,68.50
2017-09-29T17:55:21.104Z,68.20
2017-09-29T17:57:49.127Z,68.00
2017-09-29T18:00:17.417Z,67.70
2017-09-29T18:02:45.819Z,67.90
2017-09-29T18:05:13.848Z,67.90
2017-09-29T18:07:41.476Z,68.50
2017-09-29T18:10:09.127Z,68.50
2017-09-29T18:12:36.835Z,68.00
2017-09-29T18:15:04.476Z,67.80
2017-09-29T18:17:32.453Z,67.10
2017-09-29T18:20:01.691Z,67.40
2017-09-29T18:22:29.397Z,67.20
2017-09-29T18:24:57.204Z,68.00
2017-09-29T18:27:25.598Z,67.50
2017-09-29T18:29:54.627Z,67.50
2017-09-29T18:32:23.042Z,66.80
2017-09-29T18:34:50.655Z,66.80
2017-09-29T18:37:18.320Z,66.60
2017-09-29T18:39:46.061Z,66.90
2017-09-29T18:42:13.753Z,66.40
2017-09-29T18:44:44.009Z,66.40
2017-09-29T18:50:07.251Z,66.40
2017-09-29T18:52:35.279Z,66.60
2017-09-29T18:55:03.695Z,66.50
2017-09-29T18:57:31.328Z,66.40
2017-09-29T19:00:00.190Z,66.60
2017-09-29T19:02:28.013Z,66.60
2017-09-29T19:04:55.692Z,66.70
2017-09-29T19:07:23.738Z,66.60
2017-09-29T19:09:51.386Z,66.40
2017-09-29T19:12:19.786Z,66.50
2017-09-29T19:14:47.452Z,67.00
2017-09-29T19:17:15.095Z,67.00
2017-09-29T19:19:43.105Z,67.20
2017-09-29T19:22:10.760Z,67.30
2017-09-29T19:24:38.931Z,67.20
2017-09-29T19:27:06.598Z,67.20
2017-09-29T19:29:34.247Z,67.50
2017-09-29T19:32:02.251Z,68.00
2017-09-29T19:34:29.954Z,68.00
2017-09-29T19:36:58.672Z,67.70
2017-09-29T19:39:26.325Z,68.20
2017-09-29T19:41:53.942Z,68.80
2017-09-29T19:44:22.685Z,68.80
2017-09-29T19:46:50.602Z,68.80
2017-09-29T19:49:19.001Z,68.60
2017-09-29T19:51:46.650Z,68.60
2017-09-29T19:54:14.337Z,68.40
2017-09-29T19:56:42.484Z,69.20
2017-09-29T19:59:11.086Z,69.40
2017-09-29T20:01:38.722Z,69.60
2017-09-29T20:04:07.578Z,69.40
2017-09-29T20:06:35.268Z,69.30
2017-09-29T20:09:03.655Z,69.40
2017-09-29T20:11:32.092Z,69.60
2017-09-29T20:13:59.859Z,69.60
2017-09-29T20:16:27.986Z,70.00
2017-09-29T20:18:55.669Z,70.20
2017-09-29T20:21:23.307Z,70.30
2017-09-29T20:23:51.351Z,70.10
2017-09-29T20:26:19.020Z,69.70
2017-09-29T20:28:47.480Z,70.00
2017-09-29T20:31:15.177Z,70.00
2017-09-29T20:33:43.565Z,70.50
2017-09-29T20:36:11.598Z,70.30
2017-09-29T20:38:39.250Z,70.10
2017-09-29T20:41:07.634Z,70.10
2017-09-29T20:43:35.325Z,70.00
2017-09-29T20:46:03.706Z,69.40
2017-09-29T20:48:32.570Z,69.20
2017-09-29T20:51:00.197Z,69.10
2017-09-29T20:53:27.821Z,69.30
2017-09-29T20:55:56.218Z,69.50
2017-09-29T20:58:23.861Z,69.50
2017-09-29T21:00:52.625Z,69.60
2017-09-29T21:03:20.249Z,69.60
2017-09-29T21:05:47.927Z,69.70
2017-09-29T21:08:15.567Z,69.50
2017-09-29T21:10:43.180Z,69.60
2017-09-29T21:13:11.956Z,70.70
2017-09-29T21:15:39.573Z,69.80
2017-09-29T21:18:07.178Z,69.70
2017-09-29T21:20:35.148Z,70.00
2017-09-29T21:23:02.756Z,70.30
2017-09-29T21:25:30.361Z,70.20
2017-09-29T21:27:57.989Z,70.00
2017-09-29T21:30:25.605Z,70.00
2017-09-29T21:32:54.476Z,70.00
2017-09-29T21:35:22.839Z,70.20
2017-09-29T21:37:50.445Z,70.30
2017-09-29T21:40:18.844Z,70.10
2017-09-29T21:42:46.484Z,70.00
2017-09-29T21:45:14.862Z,70.50
2017-09-29T21:47:42.822Z,70.30
2017-09-29T21:50:11.246Z,69.90
2017-09-29T21:52:38.848Z,69.90
2017-09-29T21:55:07.250Z,70.60
2017-09-29T21:57:35.645Z,69.60
2017-09-29T22:00:04.015Z,69.50
2017-09-29T22:02:31.624Z,69.50
2017-09-29T22:04:59.231Z,69.70
2017-09-29T22:07:27.618Z,69.80
2017-09-29T22:09:55.220Z,69.80
2017-09-29T22:12:23.180Z,69.70
2017-09-29T22:14:51.562Z,69.80
2017-09-29T22:17:19.186Z,70.60
2017-09-29T22:19:46.821Z,70.00
2017-09-29T22:22:14.461Z,69.90
2017-09-29T22:24:42.427Z,69.80
2017-09-29T22:27:10.041Z,69.50
2017-09-29T22:29:37.645Z,69.40
